sensor_id;sensor_type;location;lat;lon;timestamp;pressure;altitude;pressure_sealevel;temperature;humidity
47726;BME280;33483;48.294;16.388;2023-06-22T00:01:20;99894.09;;;19.52;100.00
47726;BME280;33483;48.294;16.388;2023-06-22T00:03:49;99898.22;;;19.51;100.00
47726;BME280;33483;48.294;16.388;2023-06-22T00:06:17;99892.75;;;19.53;100.00
47726;BME280;33483;48.294;16.388;2023-06-22T00:08:46;99881.78;;;19.48;100.00
47726;BME280;33483;48.294;16.388;2023-06-22T00:11:13;99891.63;;;19.39;100.00
47726;BME280;33483;48.294;16.388;2023-06-22T00:13:41;99878.91;;;19.38;100.00
47726;BME280;33483;48.294;16.388;2023-06-22T00:16:08;99872.88;;;19.25;100.00
47726;BME280;33483;48.294;16.388;2023-06-22T00:18:35;99883.94;;;19.23;100.00
47726;BME280;33483;48.294;16.388;2023-06-22T00:21:02;99875.00;;;19.17;100.00
47726;BME280;33483;48.294;16.388;2023-06-22T00:23:29;99885.34;;;19.14;100.00
47726;BME280;33483;48.294;16.388;2023-06-22T00:26:01;99880.28;;;19.13;100.00
47726;BME280;33483;48.294;16.388;2023-06-22T00:28:28;99870.63;;;19.06;100.00
47726;BME280;33483;48.294;16.388;2023-06-22T00:30:55;99880.38;;;19.05;100.00
47726;BME280;33483;48.294;16.388;2023-06-22T00:33:25;99874.44;;;19.01;100.00
47726;BME280;33483;48.294;16.388;2023-06-22T00:35:52;99865.19;;;18.91;100.00
47726;BME280;33483;48.294;16.388;2023-06-22T00:38:22;99869.16;;;18.88;100.00
47726;BME280;33483;48.294;16.388;2023-06-22T00:40:49;99868.97;;;18.86;100.00
47726;BME280;33483;48.294;16.388;2023-06-22T00:43:17;99859.69;;;18.76;100.00
47726;BME280;33483;48.294;16.388;2023-06-22T00:45:43;99858.06;;;18.73;100.00
47726;BME280;33483;48.294;16.388;2023-06-22T00:48:11;99864.66;;;18.68;100.00
47726;BME280;33483;48.294;16.388;2023-06-22T00:50:39;99855.34;;;18.65;100.00
47726;BME280;33483;48.294;16.388;2023-06-22T00:53:07;99862.50;;;18.59;100.00
47726;BME280;33483;48.294;16.388;2023-06-22T00:55:39;99862.00;;;18.53;100.00
47726;BME280;33483;48.294;16.388;2023-06-22T00:58:10;99862.31;;;18.57;100.00
47726;BME280;33483;48.294;16.388;2023-06-22T01:00:38;99859.38;;;18.55;100.00
47726;BME280;33483;48.294;16.388;2023-06-22T01:03:05;99858.63;;;18.54;100.00
47726;BME280;33483;48.294;16.388;2023-06-22T01:05:37;99857.88;;;18.54;100.00
47726;BME280;33483;48.294;16.388;2023-06-22T01:10:52;99856.63;;;18.47;100.00
47726;BME280;33483;48.294;16.388;2023-06-22T01:13:29;99852.47;;;18.48;100.00
47726;BME280;33483;48.294;16.388;2023-06-22T01:16:00;99845.22;;;18.45;100.00
47726;BME280;33483;48.294;16.388;2023-06-22T01:18:30;99845.63;;;18.42;100.00
47726;BME280;33483;48.294;16.388;2023-06-22T01:20:59;99848.59;;;18.44;100.00
47726;BME280;33483;48.294;16.388;2023-06-22T01:28:48;99850.72;;;18.36;100.00
47726;BME280;33483;48.294;16.388;2023-06-22T01:31:16;99839.63;;;18.38;100.00
47726;BME280;33483;48.294;16.388;2023-06-22T01:33:46;99845.66;;;18.34;100.00
47726;BME280;33483;48.294;16.388;2023-06-22T01:36:15;99844.00;;;18.31;100.00
47726;BME280;33483;48.294;16.388;2023-06-22T01:38:45;99851.94;;;18.25;100.00
47726;BME280;33483;48.294;16.388;2023-06-22T01:41:13;99852.34;;;18.22;100.00
47726;BME280;33483;48.294;16.388;2023-06-22T01:43:41;99851.19;;;18.25;100.00
47726;BME280;33483;48.294;16.388;2023-06-22T01:46:09;99859.25;;;18.21;100.00
47726;BME280;33483;48.294;16.388;2023-06-22T01:48:38;99862.44;;;18.17;100.00
47726;BME280;33483;48.294;16.388;2023-06-22T01:51:05;99861.53;;;18.15;100.00
47726;BME280;33483;48.294;16.388;2023-06-22T01:53:36;99851.63;;;18.14;100.00
47726;BME280;33483;48.294;16.388;2023-06-22T01:56:03;99850.91;;;18.13;100.00
47726;BME280;33483;48.294;16.388;2023-06-22T01:58:30;99841.56;;;18.11;100.00
47726;BME280;33483;48.294;16.388;2023-06-22T02:01:00;99842.88;;;18.10;100.00
47726;BME280;33483;48.294;16.388;2023-06-22T02:03:31;99833.72;;;18.09;100.00
47726;BME280;33483;48.294;16.388;2023-06-22T02:06:08;99839.72;;;18.06;100.00
47726;BME280;33483;48.294;16.388;2023-06-22T02:08:46;99833.19;;;18.03;100.00
47726;BME280;33483;48.294;16.388;2023-06-22T02:11:15;99829.88;;;17.97;100.00
47726;BME280;33483;48.294;16.388;2023-06-22T02:13:44;99832.13;;;17.98;100.00
47726;BME280;33483;48.294;16.388;2023-06-22T02:16:12;99842.81;;;17.92;100.00
47726;BME280;33483;48.294;16.388;2023-06-22T02:18:45;99840.56;;;17.91;100.00
47726;BME280;33483;48.294;16.388;2023-06-22T02:21:12;99837.00;;;17.90;100.00
47726;BME280;33483;48.294;16.388;2023-06-22T02:23:41;99840.41;;;17.89;100.00
47726;BME280;33483;48.294;16.388;2023-06-22T02:26:08;99840.78;;;17.85;100.00
47726;BME280;33483;48.294;16.388;2023-06-22T02:28:38;99842.13;;;17.84;100.00
47726;BME280;33483;48.294;16.388;2023-06-22T02:31:04;99844.00;;;17.82;100.00
47726;BME280;33483;48.294;16.388;2023-06-22T02:33:32;99833.94;;;17.79;100.00
47726;BME280;33483;48.294;16.388;2023-06-22T02:35:59;99829.47;;;17.76;100.00
47726;BME280;33483;48.294;16.388;2023-06-22T02:38:26;99825.91;;;17.75;100.00
47726;BME280;33483;48.294;16.388;2023-06-22T02:40:53;99828.53;;;17.73;100.00
47726;BME280;33483;48.294;16.388;2023-06-22T02:43:21;99834.69;;;17.79;100.00
47726;BME280;33483;48.294;16.388;2023-06-22T02:45:47;99830.75;;;17.75;100.00
47726;BME280;33483;48.294;16.388;2023-06-22T02:48:16;99826.28;;;17.79;100.00
47726;BME280;33483;48.294;16.388;2023-06-22T02:50:45;99821.41;;;17.80;100.00
47726;BME280;33483;48.294;16.388;2023-06-22T02:53:12;99827.25;;;17.74;100.00
47726;BME280;33483;48.294;16.388;2023-06-22T02:55:45;99833.56;;;17.75;100.00
47726;BME280;33483;48.294;16.388;2023-06-22T02:58:13;99832.66;;;17.72;100.00
47726;BME280;33483;48.294;16.388;2023-06-22T03:00:40;99838.09;;;17.70;100.00
47726;BME280;33483;48.294;16.388;2023-06-22T03:03:09;99821.28;;;17.70;100.00
47726;BME280;33483;48.294;16.388;2023-06-22T03:05:36;99834.72;;;17.72;100.00
47726;BME280;33483;48.294;16.388;2023-06-22T03:08:04;99835.66;;;17.74;100.00
47726;BME280;33483;48.294;16.388;2023-06-22T03:10:33;99842.91;;;17.77;100.00
47726;BME280;33483;48.294;16.388;2023-06-22T03:13:01;99833.34;;;17.80;100.00
47726;BME280;33483;48.294;16.388;2023-06-22T03:15:28;99833.13;;;17.86;100.00
47726;BME280;33483;48.294;16.388;2023-06-22T03:17:56;99833.31;;;17.88;100.00
47726;BME280;33483;48.294;16.388;2023-06-22T03:20:24;99835.91;;;17.93;100.00
47726;BME280;33483;48.294;16.388;2023-06-22T03:22:52;99838.63;;;18.01;100.00
47726;BME280;33483;48.294;16.388;2023-06-22T03:25:19;99848.66;;;18.12;100.00
47726;BME280;33483;48.294;16.388;2023-06-22T03:27:48;99849.75;;;18.16;100.00
47726;BME280;33483;48.294;16.388;2023-06-22T03:30:16;99851.22;;;18.17;100.00
47726;BME280;33483;48.294;16.388;2023-06-22T03:32:45;99846.72;;;18.22;100.00
47726;BME280;33483;48.294;16.388;2023-06-22T03:35:17;99841.66;;;18.20;100.00
47726;BME280;33483;48.294;16.388;2023-06-22T03:37:45;99846.88;;;18.24;100.00
47726;BME280;33483;48.294;16.388;2023-06-22T03:40:12;99849.03;;;18.33;100.00
47726;BME280;33483;48.294;16.388;2023-06-22T03:42:40;99850.66;;;18.43;100.00
47726;BME280;33483;48.294;16.388;2023-06-22T03:45:08;99851.59;;;18.63;100.00
47726;BME280;33483;48.294;16.388;2023-06-22T03:47:36;99845.75;;;18.85;100.00
47726;BME280;33483;48.294;16.388;2023-06-22T03:50:03;99840.53;;;19.16;100.00
47726;BME280;33483;48.294;16.388;2023-06-22T03:52:30;99845.47;;;19.25;100.00
47726;BME280;33483;48.294;16.388;2023-06-22T03:54:57;99847.41;;;19.40;100.00
47726;BME280;33483;48.294;16.388;2023-06-22T03:57:25;99846.34;;;19.62;100.00
47726;BME280;33483;48.294;16.388;2023-06-22T03:59:56;99849.09;;;19.79;100.00
47726;BME280;33483;48.294;16.388;2023-06-22T04:02:23;99848.22;;;20.12;100.00
47726;BME280;33483;48.294;16.388;2023-06-22T04:04:51;99845.06;;;20.35;100.00
47726;BME280;33483;48.294;16.388;2023-06-22T04:07:18;99846.19;;;20.87;100.00
47726;BME280;33483;48.294;16.388;2023-06-22T04:09:47;99852.56;;;21.45;100.00
47726;BME280;33483;48.294;16.388;2023-06-22T04:12:15;99853.81;;;21.92;100.00
47726;BME280;33483;48.294;16.388;2023-06-22T04:14:42;99852.66;;;22.25;100.00
47726;BME280;33483;48.294;16.388;2023-06-22T04:17:09;99859.66;;;22.46;100.00
47726;BME280;33483;48.294;16.388;2023-06-22T04:19:36;99851.63;;;22.52;100.00
47726;BME280;33483;48.294;16.388;2023-06-22T04:22:06;99842.81;;;22.26;100.00
47726;BME280;33483;48.294;16.388;2023-06-22T04:24:36;99846.53;;;22.60;100.00
47726;BME280;33483;48.294;16.388;2023-06-22T04:27:04;99843.00;;;22.80;100.00
47726;BME280;33483;48.294;16.388;2023-06-22T04:29:31;99854.00;;;23.18;100.00
47726;BME280;33483;48.294;16.388;2023-06-22T04:31:59;99853.66;;;23.57;100.00
47726;BME280;33483;48.294;16.388;2023-06-22T04:34:34;99848.94;;;23.17;100.00
47726;BME280;33483;48.294;16.388;2023-06-22T04:37:02;99840.69;;;22.67;100.00
47726;BME280;33483;48.294;16.388;2023-06-22T04:39:33;99857.25;;;22.61;100.00
47726;BME280;33483;48.294;16.388;2023-06-22T04:42:00;99866.06;;;22.56;100.00
47726;BME280;33483;48.294;16.388;2023-06-22T04:44:27;99874.06;;;22.50;100.00
47726;BME280;33483;48.294;16.388;2023-06-22T04:46:58;99863.44;;;22.39;100.00
47726;BME280;33483;48.294;16.388;2023-06-22T04:49:30;99861.72;;;22.24;100.00
47726;BME280;33483;48.294;16.388;2023-06-22T04:54:30;99859.88;;;23.43;100.00
47726;BME280;33483;48.294;16.388;2023-06-22T04:57:00;99864.09;;;24.44;100.00
47726;BME280;33483;48.294;16.388;2023-06-22T04:59:27;99863.50;;;25.06;100.00
47726;BME280;33483;48.294;16.388;2023-06-22T05:01:57;99878.09;;;25.62;100.00
47726;BME280;33483;48.294;16.388;2023-06-22T05:04:27;99885.47;;;25.67;100.00
47726;BME280;33483;48.294;16.388;2023-06-22T05:06:55;99878.25;;;25.52;100.00
47726;BME280;33483;48.294;16.388;2023-06-22T05:09:22;99875.63;;;25.31;100.00
47726;BME280;33483;48.294;16.388;2023-06-22T05:11:52;99885.19;;;25.75;100.00
47726;BME280;33483;48.294;16.388;2023-06-22T05:14:19;99890.03;;;25.47;100.00
47726;BME280;33483;48.294;16.388;2023-06-22T05:16:46;99887.50;;;25.78;100.00
47726;BME280;33483;48.294;16.388;2023-06-22T05:19:16;99893.41;;;26.34;100.00
47726;BME280;33483;48.294;16.388;2023-06-22T05:21:46;99893.31;;;26.19;100.00
47726;BME280;33483;48.294;16.388;2023-06-22T05:24:15;99895.13;;;26.94;100.00
47726;BME280;33483;48.294;16.388;2023-06-22T05:26:42;99897.81;;;27.19;100.00
47726;BME280;33483;48.294;16.388;2023-06-22T05:29:09;99890.72;;;26.63;100.00
47726;BME280;33483;48.294;16.388;2023-06-22T05:31:36;99886.59;;;25.87;100.00
47726;BME280;33483;48.294;16.388;2023-06-22T05:34:03;99880.47;;;25.79;100.00
47726;BME280;33483;48.294;16.388;2023-06-22T05:36:30;99880.69;;;26.22;100.00
47726;BME280;33483;48.294;16.388;2023-06-22T05:38:57;99876.28;;;26.32;100.00
47726;BME280;33483;48.294;16.388;2023-06-22T05:41:25;99877.78;;;26.74;100.00
47726;BME280;33483;48.294;16.388;2023-06-22T05:43:52;99878.06;;;26.94;100.00
47726;BME280;33483;48.294;16.388;2023-06-22T05:46:19;99866.06;;;26.27;100.00
47726;BME280;33483;48.294;16.388;2023-06-22T05:48:46;99864.34;;;26.09;100.00
47726;BME280;33483;48.294;16.388;2023-06-22T05:51:14;99861.06;;;26.01;100.00
47726;BME280;33483;48.294;16.388;2023-06-22T05:53:43;99860.25;;;26.66;100.00
47726;BME280;33483;48.294;16.388;2023-06-22T05:56:11;99864.50;;;27.35;99.18
47726;BME280;33483;48.294;16.388;2023-06-22T05:58:38;99873.31;;;27.41;95.41
47726;BME280;33483;48.294;16.388;2023-06-22T06:01:05;99879.19;;;27.16;100.00
47726;BME280;33483;48.294;16.388;2023-06-22T06:03:32;99889.88;;;26.75;100.00
47726;BME280;33483;48.294;16.388;2023-06-22T06:06:00;99886.59;;;26.53;100.00
47726;BME280;33483;48.294;16.388;2023-06-22T06:08:29;99898.50;;;26.63;100.00
47726;BME280;33483;48.294;16.388;2023-06-22T06:10:56;99895.25;;;26.82;100.00
47726;BME280;33483;48.294;16.388;2023-06-22T06:13:24;99889.78;;;26.86;100.00
47726;BME280;33483;48.294;16.388;2023-06-22T06:15:51;99893.56;;;26.91;100.00
47726;BME280;33483;48.294;16.388;2023-06-22T06:18:21;99891.66;;;26.95;100.00
47726;BME280;33483;48.294;16.388;2023-06-22T06:20:49;99897.53;;;27.13;100.00
47726;BME280;33483;48.294;16.388;2023-06-22T06:23:16;99896.47;;;27.20;100.00
47726;BME280;33483;48.294;16.388;2023-06-22T06:25:43;99894.53;;;27.24;100.00
47726;BME280;33483;48.294;16.388;2023-06-22T06:28:10;99885.22;;;26.95;100.00
47726;BME280;33483;48.294;16.388;2023-06-22T06:30:42;99890.06;;;27.06;100.00
47726;BME280;33483;48.294;16.388;2023-06-22T06:33:09;99895.81;;;27.35;100.00
47726;BME280;33483;48.294;16.388;2023-06-22T06:35:36;99888.63;;;27.63;98.05
47726;BME280;33483;48.294;16.388;2023-06-22T06:38:06;99892.78;;;28.05;97.10
47726;BME280;33483;48.294;16.388;2023-06-22T06:40:34;99899.94;;;28.37;95.02
47726;BME280;33483;48.294;16.388;2023-06-22T06:43:01;99901.78;;;27.99;96.71
47726;BME280;33483;48.294;16.388;2023-06-22T06:45:29;99894.97;;;28.06;93.09
47726;BME280;33483;48.294;16.388;2023-06-22T06:47:57;99903.63;;;28.08;88.87
47726;BME280;33483;48.294;16.388;2023-06-22T06:50:25;99895.13;;;28.72;86.37
47726;BME280;33483;48.294;16.388;2023-06-22T06:52:55;99900.03;;;28.39;90.86
47726;BME280;33483;48.294;16.388;2023-06-22T06:55:23;99894.03;;;29.13;86.16
47726;BME280;33483;48.294;16.388;2023-06-22T06:57:52;99895.69;;;30.25;80.74
47726;BME280;33483;48.294;16.388;2023-06-22T07:00:20;99894.53;;;31.13;72.06
47726;BME280;33483;48.294;16.388;2023-06-22T07:02:47;99905.03;;;31.69;64.42
47726;BME280;33483;48.294;16.388;2023-06-22T07:05:16;99913.75;;;32.18;64.84
47726;BME280;33483;48.294;16.388;2023-06-22T07:07:43;99905.91;;;32.95;57.97
47726;BME280;33483;48.294;16.388;2023-06-22T07:10:13;99914.38;;;33.17;56.62
47726;BME280;33483;48.294;16.388;2023-06-22T07:12:42;99910.47;;;33.62;54.06
47726;BME280;33483;48.294;16.388;2023-06-22T07:15:09;99894.63;;;33.90;52.56
47726;BME280;33483;48.294;16.388;2023-06-22T07:17:38;99899.94;;;34.02;53.99
47726;BME280;33483;48.294;16.388;2023-06-22T07:20:11;99903.03;;;34.46;49.97
47726;BME280;33483;48.294;16.388;2023-06-22T07:22:42;99903.09;;;34.85;49.46
47726;BME280;33483;48.294;16.388;2023-06-22T07:25:10;99900.47;;;33.35;52.04
47726;BME280;33483;48.294;16.388;2023-06-22T07:27:45;99897.59;;;33.35;52.84
47726;BME280;33483;48.294;16.388;2023-06-22T07:30:13;99889.81;;;33.99;51.62
47726;BME280;33483;48.294;16.388;2023-06-22T07:32:40;99891.16;;;34.28;52.10
47726;BME280;33483;48.294;16.388;2023-06-22T07:35:08;99890.41;;;34.27;48.74
47726;BME280;33483;48.294;16.388;2023-06-22T07:37:35;99899.56;;;33.86;51.62
47726;BME280;33483;48.294;16.388;2023-06-22T07:40:02;99897.31;;;34.14;49.85
47726;BME280;33483;48.294;16.388;2023-06-22T07:42:33;99905.97;;;34.48;51.88
47726;BME280;33483;48.294;16.388;2023-06-22T07:45:01;99901.97;;;34.29;48.97
47726;BME280;33483;48.294;16.388;2023-06-22T07:47:29;99902.09;;;34.71;47.93
47726;BME280;33483;48.294;16.388;2023-06-22T07:49:58;99891.97;;;34.68;50.30
47726;BME280;33483;48.294;16.388;2023-06-22T07:52:28;99902.91;;;35.15;48.59
47726;BME280;33483;48.294;16.388;2023-06-22T07:54:56;99897.59;;;34.97;46.21
47726;BME280;33483;48.294;16.388;2023-06-22T07:57:23;99892.41;;;35.32;45.51
47726;BME280;33483;48.294;16.388;2023-06-22T07:59:50;99885.91;;;34.91;46.73
47726;BME280;33483;48.294;16.388;2023-06-22T08:02:17;99889.16;;;34.72;45.52
47726;BME280;33483;48.294;16.388;2023-06-22T08:04:45;99888.34;;;34.67;44.89
47726;BME280;33483;48.294;16.388;2023-06-22T08:07:12;99896.84;;;34.26;44.76
47726;BME280;33483;48.294;16.388;2023-06-22T08:09:45;99890.91;;;33.54;47.21
47726;BME280;33483;48.294;16.388;2023-06-22T08:12:12;99884.13;;;33.42;47.76
47726;BME280;33483;48.294;16.388;2023-06-22T08:14:41;99892.78;;;34.03;47.95
47726;BME280;33483;48.294;16.388;2023-06-22T08:17:11;99889.28;;;34.78;46.18
47726;BME280;33483;48.294;16.388;2023-06-22T08:19:39;99891.94;;;35.03;44.32
47726;BME280;33483;48.294;16.388;2023-06-22T08:22:06;99895.72;;;35.14;44.42
47726;BME280;33483;48.294;16.388;2023-06-22T08:24:33;99897.00;;;35.47;44.86
47726;BME280;33483;48.294;16.388;2023-06-22T08:27:03;99893.38;;;35.92;45.26
47726;BME280;33483;48.294;16.388;2023-06-22T08:29:30;99895.13;;;35.22;41.78
47726;BME280;33483;48.294;16.388;2023-06-22T08:31:57;99895.19;;;35.67;45.75
47726;BME280;33483;48.294;16.388;2023-06-22T08:34:25;99887.06;;;35.56;42.02
47726;BME280;33483;48.294;16.388;2023-06-22T08:36:54;99899.28;;;36.00;41.72
47726;BME280;33483;48.294;16.388;2023-06-22T08:39:24;99891.22;;;35.47;42.61
47726;BME280;33483;48.294;16.388;2023-06-22T08:41:53;99891.41;;;36.06;43.65
47726;BME280;33483;48.294;16.388;2023-06-22T08:44:23;99883.53;;;36.11;44.14
47726;BME280;33483;48.294;16.388;2023-06-22T08:46:50;99881.63;;;36.30;41.70
47726;BME280;33483;48.294;16.388;2023-06-22T08:49:18;99895.16;;;36.17;42.35
47726;BME280;33483;48.294;16.388;2023-06-22T08:51:46;99882.31;;;36.28;41.79
47726;BME280;33483;48.294;16.388;2023-06-22T08:54:16;99888.06;;;36.88;39.33
47726;BME280;33483;48.294;16.388;2023-06-22T08:56:45;99883.91;;;37.03;41.74
47726;BME280;33483;48.294;16.388;2023-06-22T08:59:15;99883.91;;;37.03;40.23
47726;BME280;33483;48.294;16.388;2023-06-22T09:01:42;99877.63;;;36.59;39.84
47726;BME280;33483;48.294;16.388;2023-06-22T09:04:12;99885.56;;;36.58;37.71
47726;BME280;33483;48.294;16.388;2023-06-22T09:06:40;99880.03;;;36.78;38.73
47726;BME280;33483;48.294;16.388;2023-06-22T09:09:12;99879.81;;;36.60;41.39
47726;BME280;33483;48.294;16.388;2023-06-22T09:11:39;99883.19;;;37.04;38.16
47726;BME280;33483;48.294;16.388;2023-06-22T09:14:06;99881.69;;;36.97;38.59
47726;BME280;33483;48.294;16.388;2023-06-22T09:16:38;99870.34;;;37.23;40.94
47726;BME280;33483;48.294;16.388;2023-06-22T09:19:07;99867.41;;;37.15;39.93
47726;BME280;33483;48.294;16.388;2023-06-22T09:21:35;99880.50;;;37.27;38.80
47726;BME280;33483;48.294;16.388;2023-06-22T09:24:02;99876.56;;;36.28;38.50
47726;BME280;33483;48.294;16.388;2023-06-22T09:26:29;99878.72;;;36.91;37.15
47726;BME280;33483;48.294;16.388;2023-06-22T09:28:57;99870.84;;;36.98;42.24
47726;BME280;33483;48.294;16.388;2023-06-22T09:31:24;99871.72;;;37.16;37.67
47726;BME280;33483;48.294;16.388;2023-06-22T09:33:55;99871.22;;;36.64;38.66
47726;BME280;33483;48.294;16.388;2023-06-22T09:36:25;99867.13;;;36.85;36.76
47726;BME280;33483;48.294;16.388;2023-06-22T09:38:52;99861.22;;;36.77;37.91
47726;BME280;33483;48.294;16.388;2023-06-22T09:41:23;99852.56;;;36.75;37.17
47726;BME280;33483;48.294;16.388;2023-06-22T09:43:51;99854.28;;;37.04;40.03
47726;BME280;33483;48.294;16.388;2023-06-22T09:46:22;99856.00;;;37.34;34.62
47726;BME280;33483;48.294;16.388;2023-06-22T09:48:52;99851.09;;;36.76;35.63
47726;BME280;33483;48.294;16.388;2023-06-22T09:51:19;99847.91;;;37.20;36.74
47726;BME280;33483;48.294;16.388;2023-06-22T09:53:50;99844.56;;;36.70;35.81
47726;BME280;33483;48.294;16.388;2023-06-22T09:56:20;99839.66;;;36.84;39.22
47726;BME280;33483;48.294;16.388;2023-06-22T09:58:48;99844.94;;;37.10;36.64
47726;BME280;33483;48.294;16.388;2023-06-22T10:01:18;99846.50;;;37.25;36.38
47726;BME280;33483;48.294;16.388;2023-06-22T10:03:45;99835.91;;;36.10;37.56
47726;BME280;33483;48.294;16.388;2023-06-22T10:06:13;99831.81;;;36.29;38.17
47726;BME280;33483;48.294;16.388;2023-06-22T10:08:40;99834.91;;;36.45;38.59
47726;BME280;33483;48.294;16.388;2023-06-22T10:11:08;99841.41;;;35.88;36.51
47726;BME280;33483;48.294;16.388;2023-06-22T10:13:35;99845.66;;;36.39;34.92
47726;BME280;33483;48.294;16.388;2023-06-22T10:16:02;99836.66;;;36.76;37.28
47726;BME280;33483;48.294;16.388;2023-06-22T10:18:29;99836.38;;;36.48;36.85
47726;BME280;33483;48.294;16.388;2023-06-22T10:20:57;99836.06;;;36.24;38.49
47726;BME280;33483;48.294;16.388;2023-06-22T10:23:27;99831.72;;;35.69;36.74
47726;BME280;33483;48.294;16.388;2023-06-22T10:25:54;99817.34;;;35.71;39.76
47726;BME280;33483;48.294;16.388;2023-06-22T10:28:24;99824.59;;;36.28;37.70
47726;BME280;33483;48.294;16.388;2023-06-22T10:30:51;99827.06;;;35.96;38.61
47726;BME280;33483;48.294;16.388;2023-06-22T10:33:18;99827.09;;;35.98;36.54
47726;BME280;33483;48.294;16.388;2023-06-22T10:35:45;99827.38;;;35.66;37.90
47726;BME280;33483;48.294;16.388;2023-06-22T10:38:13;99821.47;;;35.56;38.20
47726;BME280;33483;48.294;16.388;2023-06-22T10:40:40;99820.00;;;35.53;36.85
47726;BME280;33483;48.294;16.388;2023-06-22T10:43:07;99811.59;;;35.73;38.16
47726;BME280;33483;48.294;16.388;2023-06-22T10:45:34;99818.78;;;35.70;36.89
47726;BME280;33483;48.294;16.388;2023-06-22T10:48:01;99811.66;;;35.77;38.53
47726;BME280;33483;48.294;16.388;2023-06-22T10:50:28;99817.75;;;35.48;39.16
47726;BME280;33483;48.294;16.388;2023-06-22T10:52:56;99815.28;;;35.30;37.22
47726;BME280;33483;48.294;16.388;2023-06-22T10:55:26;99810.47;;;35.45;38.10
47726;BME280;33483;48.294;16.388;2023-06-22T10:57:58;99807.47;;;35.39;38.97
47726;BME280;33483;48.294;16.388;2023-06-22T11:00:25;99808.72;;;35.26;37.85
47726;BME280;33483;48.294;16.388;2023-06-22T11:02:52;99804.41;;;35.27;37.27
47726;BME280;33483;48.294;16.388;2023-06-22T11:05:20;99792.63;;;35.10;38.93
47726;BME280;33483;48.294;16.388;2023-06-22T11:07:47;99790.06;;;34.87;39.88
47726;BME280;33483;48.294;16.388;2023-06-22T11:10:16;99784.97;;;34.83;38.76
47726;BME280;33483;48.294;16.388;2023-06-22T11:12:46;99775.00;;;35.34;37.33
47726;BME280;33483;48.294;16.388;2023-06-22T11:15:13;99773.63;;;34.93;37.55
47726;BME280;33483;48.294;16.388;2023-06-22T11:17:41;99772.69;;;35.25;38.84
47726;BME280;33483;48.294;16.388;2023-06-22T11:20:08;99763.19;;;34.72;37.67
47726;BME280;33483;48.294;16.388;2023-06-22T11:22:41;99763.56;;;34.53;39.31
47726;BME280;33483;48.294;16.388;2023-06-22T11:25:08;99773.31;;;33.66;40.21
47726;BME280;33483;48.294;16.388;2023-06-22T11:27:38;99765.34;;;33.63;40.62
47726;BME280;33483;48.294;16.388;2023-06-22T11:30:06;99758.22;;;33.66;39.47
47726;BME280;33483;48.294;16.388;2023-06-22T11:32:33;99758.00;;;33.91;40.39
47726;BME280;33483;48.294;16.388;2023-06-22T11:35:01;99761.16;;;34.03;40.57
47726;BME280;33483;48.294;16.388;2023-06-22T11:37:28;99751.97;;;33.77;41.78
47726;BME280;33483;48.294;16.388;2023-06-22T11:39:55;99748.59;;;33.87;40.81
47726;BME280;33483;48.294;16.388;2023-06-22T11:42:35;99747.75;;;33.17;41.69
47726;BME280;33483;48.294;16.388;2023-06-22T11:45:04;99745.22;;;32.72;42.02
47726;BME280;33483;48.294;16.388;2023-06-22T11:47:31;99752.81;;;32.89;42.00
47726;BME280;33483;48.294;16.388;2023-06-22T11:49:58;99752.47;;;33.04;41.25
47726;BME280;33483;48.294;16.388;2023-06-22T11:52:26;99741.63;;;33.01;41.79
47726;BME280;33483;48.294;16.388;2023-06-22T11:54:54;99750.59;;;32.58;43.08
47726;BME280;33483;48.294;16.388;2023-06-22T11:57:21;99749.72;;;32.51;42.58
47726;BME280;33483;48.294;16.388;2023-06-22T11:59:48;99741.28;;;32.59;43.50
47726;BME280;33483;48.294;16.388;2023-06-22T12:02:15;99750.31;;;32.22;43.95
47726;BME280;33483;48.294;16.388;2023-06-22T12:04:42;99734.41;;;32.17;44.13
47726;BME280;33483;48.294;16.388;2023-06-22T12:07:09;99745.53;;;32.56;43.76
47726;BME280;33483;48.294;16.388;2023-06-22T12:09:36;99738.41;;;32.32;43.53
47726;BME280;33483;48.294;16.388;2023-06-22T12:12:03;99742.06;;;32.34;45.34
47726;BME280;33483;48.294;16.388;2023-06-22T12:14:32;99740.81;;;32.41;44.24
47726;BME280;33483;48.294;16.388;2023-06-22T12:16:59;99726.31;;;32.63;45.54
47726;BME280;33483;48.294;16.388;2023-06-22T12:19:26;99742.97;;;32.41;43.03
47726;BME280;33483;48.294;16.388;2023-06-22T12:21:54;99731.59;;;32.45;45.61
47726;BME280;33483;48.294;16.388;2023-06-22T12:24:21;99729.75;;;32.30;44.72
47726;BME280;33483;48.294;16.388;2023-06-22T12:26:49;99721.72;;;32.52;45.40
47726;BME280;33483;48.294;16.388;2023-06-22T12:29:16;99719.66;;;32.54;44.80
47726;BME280;33483;48.294;16.388;2023-06-22T12:31:43;99726.66;;;32.47;43.28
47726;BME280;33483;48.294;16.388;2023-06-22T12:34:10;99708.63;;;32.45;44.13
47726;BME280;33483;48.294;16.388;2023-06-22T12:36:38;99712.19;;;32.43;44.48
47726;BME280;33483;48.294;16.388;2023-06-22T12:39:07;99714.66;;;32.55;43.25
47726;BME280;33483;48.294;16.388;2023-06-22T12:41:34;99706.84;;;32.59;43.76
47726;BME280;33483;48.294;16.388;2023-06-22T12:44:01;99708.75;;;32.49;44.80
47726;BME280;33483;48.294;16.388;2023-06-22T12:46:29;99710.94;;;32.50;46.17
47726;BME280;33483;48.294;16.388;2023-06-22T12:49:02;99699.41;;;32.48;44.55
47726;BME280;33483;48.294;16.388;2023-06-22T12:51:30;99704.41;;;32.20;45.00
47726;BME280;33483;48.294;16.388;2023-06-22T12:53:58;99699.38;;;32.21;44.47
47726;BME280;33483;48.294;16.388;2023-06-22T12:56:25;99703.69;;;32.47;45.86
47726;BME280;33483;48.294;16.388;2023-06-22T12:58:52;99693.88;;;32.56;45.33
47726;BME280;33483;48.294;16.388;2023-06-22T13:01:20;99686.28;;;32.69;44.61